Time;durP1;ratioP1;P1;durP2;ratioP2;P2;SDS_P1;SDS_P2;PMS_P1;PMS_P2;Temp;Humidity;BMP_temperature;BMP_pressure;BME280_temperature;BME280_humidity;BME280_pressure;Samples;Min_cycle;Max_cycle;Signal;HPM_P1;HPM_P2
2022/08/25 00:02:00;;;;;;;19.50;9.80;;;21.00;99.90;;;;;;5094182;28;20048;-73
2022/08/25 00:04:28;;;;;;;18.83;10.02;;;21.00;99.90;;;;;;5077028;28;20051;-71
2022/08/25 00:06:54;;;;;;;23.40;9.95;;;20.90;99.90;;;;;;5076046;28;20044;-73
2022/08/25 00:09:23;;;;;;;22.48;9.95;;;21.00;99.90;;;;;;5094327;28;20044;-72
2022/08/25 00:11:50;;;;;;;18.63;9.65;;;20.90;99.90;;;;;;5093766;28;20490;-76
2022/08/25 00:14:19;;;;;;;;;;;21.00;99.90;;;;;;5076124;28;20044;-73
2022/08/25 00:16:45;;;;;;;16.38;9.63;;;20.90;99.90;;;;;;5075637;28;19924;-73
2022/08/25 00:19:14;;;;;;;20.08;10.15;;;20.90;99.90;;;;;;5059709;28;20044;-73
2022/08/25 00:21:41;;;;;;;21.50;10.20;;;21.00;99.90;;;;;;5094268;28;20044;-74
2022/08/25 00:24:09;;;;;;;17.95;9.85;;;21.00;99.90;;;;;;5093594;28;20506;-72
2022/08/25 00:26:38;;;;;;;16.08;9.55;;;20.90;99.90;;;;;;5075360;28;20105;-79
2022/08/25 00:29:04;;;;;;;18.73;9.65;;;20.90;99.90;;;;;;5094407;28;20119;-72
2022/08/25 00:31:30;;;;;;;20.97;9.13;;;20.80;99.90;;;;;;5059695;28;20548;-78
2022/08/25 00:33:56;;;;;;;22.03;9.90;;;20.80;99.90;;;;;;5025474;28;20082;-72
2022/08/25 00:36:21;;;;;;;20.00;9.23;;;20.70;99.90;;;;;;5042756;28;20158;-75
2022/08/25 00:38:48;;;;;;;18.67;8.77;;;20.70;99.90;;;;;;5076147;28;20051;-73
2022/08/25 00:41:19;;;;;;;18.60;8.68;;;20.60;99.90;;;;;;5094054;28;20123;-73
2022/08/25 00:43:59;;;;;;;20.17;9.13;;;20.60;99.90;;;;;;5076210;28;20056;-73
2022/08/25 00:46:31;;;;;;;20.05;9.00;;;20.60;99.90;;;;;;5093384;28;20048;-72
2022/08/25 00:49:19;;;;;;;18.23;8.73;;;20.50;99.90;;;;;;5093685;28;20118;-73
2022/08/25 00:51:50;;;;;;;20.48;8.85;;;20.50;99.90;;;;;;5075310;28;20040;-72
2022/08/25 00:54:25;;;;;;;18.67;8.88;;;20.50;99.90;;;;;;5075157;28;20043;-72
2022/08/25 00:56:51;;;;;;;22.75;9.48;;;20.40;99.90;;;;;;5093334;28;20359;-72
2022/08/25 00:59:20;;;;;;;17.40;8.95;;;20.40;99.90;;;;;;5058227;28;20080;-72
2022/08/25 01:01:47;;;;;;;20.10;8.93;;;20.40;99.90;;;;;;5075832;28;20052;-73
2022/08/25 01:04:12;;;;;;;17.52;8.95;;;20.40;99.90;;;;;;5058412;28;20051;-71
2022/08/25 01:06:43;;;;;;;15.97;9.20;;;20.40;99.90;;;;;;5058321;28;20048;-72
2022/08/25 01:09:10;;;;;;;23.23;9.60;;;20.30;99.90;;;;;;5075161;28;20063;-71
2022/08/25 01:11:36;;;;;;;15.07;8.65;;;20.30;99.90;;;;;;5058487;28;20559;-75
2022/08/25 01:14:05;;;;;;;16.67;8.20;;;20.30;99.90;;;;;;5093074;28;20126;-72
2022/08/25 01:16:37;;;;;;;17.73;8.95;;;20.30;99.90;;;;;;5074893;28;20039;-77
2022/08/25 01:19:04;;;;;;;14.13;8.75;;;20.30;99.90;;;;;;5092669;28;20555;-72
2022/08/25 01:21:38;;;;;;;20.55;8.30;;;20.20;99.90;;;;;;5075062;28;20051;-79
2022/08/25 01:24:04;;;;;;;14.95;7.68;;;20.20;99.90;;;;;;5092860;28;20040;-71
2022/08/25 01:26:33;;;;;;;20.90;8.45;;;20.20;99.90;;;;;;5058354;28;20090;-81
2022/08/25 01:31:46;;;;;;;;;;;20.20;99.90;;;;;;5075145;28;20139;-72
2022/08/25 01:34:13;;;;;;;17.95;8.27;;;20.10;99.90;;;;;;5092707;28;20027;-74
2022/08/25 01:36:40;;;;;;;20.13;8.13;;;20.10;99.90;;;;;;5092514;28;20056;-72
2022/08/25 01:39:06;;;;;;;13.95;8.10;;;20.10;99.90;;;;;;5092594;28;20044;-79
2022/08/25 01:41:47;;;;;;;18.45;8.45;;;20.10;99.90;;;;;;5093040;28;20598;-78
2022/08/25 01:44:13;;;;;;;23.83;8.50;;;20.10;99.90;;;;;;5092997;28;20047;-72
2022/08/25 01:46:40;;;;;;;15.07;8.10;;;20.00;99.90;;;;;;5093917;28;20044;-73
2022/08/25 01:49:06;;;;;;;13.65;7.88;;;20.00;99.90;;;;;;5097552;28;20045;-73
2022/08/25 01:51:38;;;;;;;18.45;8.13;;;20.00;99.90;;;;;;5062907;28;20144;-77
2022/08/25 01:54:04;;;;;;;18.30;8.02;;;20.00;99.90;;;;;;5096980;28;20070;-74
2022/08/25 01:56:30;;;;;;;20.57;8.57;;;20.00;99.90;;;;;;5079324;28;20464;-77
2022/08/25 01:58:56;;;;;;;15.73;8.67;;;19.90;99.90;;;;;;5061703;28;20576;-72
2022/08/25 02:01:23;;;;;;;15.00;8.13;;;19.90;99.90;;;;;;5078224;28;20084;-73
2022/08/25 02:03:52;;;;;;;17.52;7.97;;;19.90;99.90;;;;;;5078335;28;20044;-71
2022/08/25 02:06:28;;;;;;;17.50;8.10;;;19.90;99.90;;;;;;5096388;28;20040;-72
2022/08/25 02:08:57;;;;;;;23.73;8.43;;;19.80;99.90;;;;;;5096426;28;20090;-72
2022/08/25 02:11:24;;;;;;;16.90;7.97;;;19.80;99.90;;;;;;5096345;28;20087;-72
2022/08/25 02:13:51;;;;;;;17.75;7.82;;;19.80;99.90;;;;;;5078244;28;20052;-71
2022/08/25 02:16:27;;;;;;;16.17;8.15;;;19.80;99.90;;;;;;5078170;28;20083;-72
2022/08/25 02:18:54;;;;;;;18.73;8.20;;;19.80;99.90;;;;;;5078138;28;20044;-73
2022/08/25 02:21:19;;;;;;;19.20;8.57;;;19.80;99.90;;;;;;5078403;28;20079;-71
2022/08/25 02:23:45;;;;;;;19.97;8.63;;;19.70;99.90;;;;;;5096382;28;20377;-72
2022/08/25 02:26:15;;;;;;;19.13;8.13;;;19.70;99.90;;;;;;5096582;28;20109;-72
2022/08/25 02:28:43;;;;;;;21.00;7.95;;;19.70;99.90;;;;;;5078764;28;20422;-72
2022/08/25 02:31:09;;;;;;;23.58;7.75;;;19.60;99.90;;;;;;5061201;28;20079;-71
2022/08/25 02:33:35;;;;;;;14.33;8.20;;;19.60;99.90;;;;;;5095977;28;20091;-72
2022/08/25 02:36:01;;;;;;;24.60;8.38;;;19.60;99.90;;;;;;5045032;28;20044;-72
2022/08/25 02:38:28;;;;;;;17.52;8.27;;;19.60;99.90;;;;;;5076992;28;20087;-71
2022/08/25 02:40:55;;;;;;;18.50;8.10;;;19.60;99.90;;;;;;5077813;28;20052;-74
2022/08/25 02:43:22;;;;;;;20.50;8.30;;;19.60;99.90;;;;;;5095817;28;20052;-71
2022/08/25 02:45:47;;;;;;;21.83;8.27;;;19.50;99.90;;;;;;5095794;28;20126;-72
2022/08/25 02:48:13;;;;;;;20.47;8.17;;;19.50;99.90;;;;;;5077705;28;20456;-72
2022/08/25 02:50:39;;;;;;;19.27;8.00;;;19.50;99.90;;;;;;5095728;28;20044;-72
2022/08/25 02:53:06;;;;;;;17.90;7.97;;;19.40;99.90;;;;;;5077741;28;20036;-74
2022/08/25 02:55:32;;;;;;;17.92;7.55;;;19.40;99.90;;;;;;5096173;28;20424;-72
2022/08/25 02:57:58;;;;;;;17.17;8.27;;;19.40;99.90;;;;;;5094727;28;20094;-72
2022/08/25 03:00:23;;;;;;;18.93;8.47;;;19.30;99.90;;;;;;5077232;28;20040;-71
2022/08/25 03:02:49;;;;;;;17.10;8.60;;;19.40;99.90;;;;;;5061049;28;20044;-72
2022/08/25 03:05:15;;;;;;;19.70;8.03;;;19.30;99.90;;;;;;5095929;28;20433;-72
2022/08/25 03:07:41;;;;;;;18.10;7.50;;;19.30;99.90;;;;;;5060594;28;20050;-75
2022/08/25 03:10:11;;;;;;;25.93;8.43;;;19.30;99.90;;;;;;5060745;28;20039;-72
2022/08/25 03:12:37;;;;;;;15.75;8.25;;;19.20;99.90;;;;;;5095080;28;20040;-74
2022/08/25 03:15:04;;;;;;;22.13;8.37;;;19.20;99.90;;;;;;5077257;28;20047;-72
2022/08/25 03:17:29;;;;;;;;;;;19.20;99.90;;;;;;5061585;28;20105;-72
2022/08/25 03:19:55;;;;;;;25.60;7.93;;;19.20;99.90;;;;;;5076936;28;19920;-72
2022/08/25 03:22:21;;;;;;;15.87;7.03;;;19.10;99.90;;;;;;5060871;28;20048;-72
2022/08/25 03:24:46;;;;;;;17.07;7.77;;;19.10;99.90;;;;;;5060536;28;20046;-72
2022/08/25 03:27:12;;;;;;;16.63;8.17;;;19.10;99.90;;;;;;5076874;28;20147;-72
2022/08/25 03:29:40;;;;;;;16.00;7.90;;;19.10;99.90;;;;;;5061164;28;20050;-72
2022/08/25 03:32:06;;;;;;;22.52;7.78;;;19.10;99.90;;;;;;5094945;28;20048;-72
2022/08/25 03:34:32;;;;;;;15.68;8.02;;;19.10;99.90;;;;;;5077292;28;20414;-72
2022/08/25 03:36:58;;;;;;;16.47;7.70;;;19.10;99.90;;;;;;5073549;28;20091;-71
2022/08/25 03:39:25;;;;;;;16.83;7.97;;;19.00;99.90;;;;;;5074798;28;20041;-73
2022/08/25 03:41:52;;;;;;;17.85;7.75;;;19.00;99.90;;;;;;5056682;28;20057;-71
2022/08/25 03:44:20;;;;;;;15.20;7.90;;;19.00;99.90;;;;;;5075000;28;20138;-72
2022/08/25 03:46:48;;;;;;;17.25;8.27;;;19.00;99.90;;;;;;5074412;28;20037;-71
2022/08/25 03:49:18;;;;;;;16.67;7.72;;;19.00;99.90;;;;;;5073075;28;20119;-73
2022/08/25 03:51:46;;;;;;;17.52;7.65;;;18.90;99.90;;;;;;5074042;28;20515;-71
2022/08/25 03:54:14;;;;;;;17.35;7.88;;;18.90;99.90;;;;;;5074167;28;20389;-71
2022/08/25 03:56:40;;;;;;;12.82;7.63;;;18.90;99.90;;;;;;5074414;28;20044;-71
2022/08/25 03:59:09;;;;;;;21.03;8.00;;;18.90;99.90;;;;;;5073521;28;20059;-73
2022/08/25 04:01:36;;;;;;;14.35;8.02;;;18.90;99.90;;;;;;5073316;28;20298;-72
2022/08/25 04:04:04;;;;;;;19.80;8.07;;;18.90;99.90;;;;;;5073013;28;20052;-71
2022/08/25 04:06:29;;;;;;;16.42;7.13;;;18.90;99.90;;;;;;5072941;28;20395;-79
2022/08/25 04:08:57;;;;;;;17.83;7.77;;;18.80;99.90;;;;;;5055821;28;20049;-71
2022/08/25 04:11:24;;;;;;;15.75;7.57;;;18.80;99.90;;;;;;5072845;28;20087;-71
2022/08/25 06:36:53;;;;;;;18.45;7.82;;;20.00;99.90;;;;;;5273884;22;20523;-72
2022/08/25 06:39:18;;;;;;;26.40;9.07;;;20.00;99.90;;;;;;5036381;28;20085;-71
2022/08/25 06:41:44;;;;;;;18.80;9.00;;;20.10;99.90;;;;;;5054296;28;20076;-71
2022/08/25 06:44:11;;;;;;;20.70;8.80;;;20.10;99.90;;;;;;5053432;28;20481;-71
2022/08/25 06:46:37;;;;;;;18.63;8.90;;;20.10;99.90;;;;;;5036601;28;20048;-71
2022/08/25 06:49:05;;;;;;;24.65;9.27;;;20.20;99.90;;;;;;5053732;28;20056;-71
2022/08/25 06:51:31;;;;;;;22.85;9.00;;;20.30;99.90;;;;;;5054225;28;20076;-76
2022/08/25 06:53:57;;;;;;;28.05;9.48;;;20.40;99.90;;;;;;5054124;28;20056;-73
2022/08/25 06:56:23;;;;;;;21.80;9.70;;;20.50;99.90;;;;;;5053833;28;20053;-74
2022/08/25 06:58:48;;;;;;;21.40;9.13;;;20.50;99.90;;;;;;5035873;28;20049;-73
2022/08/25 07:01:22;;;;;;;22.37;9.50;;;20.60;99.90;;;;;;5019991;28;20473;-72
2022/08/25 07:03:48;;;;;;;22.17;9.65;;;20.70;99.90;;;;;;5019990;28;20500;-71
2022/08/25 07:06:15;;;;;;;15.57;8.43;;;20.90;99.90;;;;;;5019551;28;20048;-74
2022/08/25 07:08:41;;;;;;;21.55;8.52;;;21.00;99.90;;;;;;5036002;28;20289;-72
2022/08/25 07:11:13;;;;;;;18.40;8.40;;;21.10;99.90;;;;;;5053883;28;20063;-72
2022/08/25 07:13:39;;;;;;;21.33;8.85;;;21.20;99.90;;;;;;5034583;28;20110;-71
2022/08/25 07:16:06;;;;;;;22.05;8.45;;;21.30;99.90;;;;;;5056565;28;20049;-75
2022/08/25 07:18:33;;;;;;;19.08;7.55;;;21.40;99.90;;;;;;5054411;28;20048;-71
2022/08/25 07:20:58;;;;;;;;;;;21.50;99.90;;;;;;5055060;28;20095;-71
2022/08/25 07:23:25;;;;;;;15.32;8.52;;;21.60;99.90;;;;;;5054981;28;19920;-72
2022/08/25 07:25:51;;;;;;;;;;;21.70;99.90;;;;;;5054116;28;20048;-72
2022/08/25 07:28:17;;;;;;;15.88;7.95;;;21.80;99.90;;;;;;5019204;28;20416;-71
2022/08/25 07:30:44;;;;;;;24.63;9.05;;;21.90;99.90;;;;;;5054096;28;20045;-71
2022/08/25 07:33:09;;;;;;;20.60;8.63;;;22.00;99.90;;;;;;5035344;28;20049;-75
2022/08/25 07:35:37;;;;;;;22.23;8.63;;;22.10;99.90;;;;;;5035400;28;20053;-71
2022/08/25 07:38:09;;;;;;;17.58;8.40;;;22.20;99.90;;;;;;5035757;28;20473;-73
2022/08/25 07:40:36;;;;;;;22.65;8.32;;;22.30;99.90;;;;;;5053827;28;20126;-70
2022/08/25 07:49:47;;;;;;;21.88;8.48;;;22.70;99.90;;;;;;5239917;22;20076;-71
2022/08/25 07:52:13;;;;;;;17.27;8.40;;;22.90;99.90;;;;;;4982682;28;20053;-72
2022/08/25 07:54:39;;;;;;;21.10;8.48;;;23.00;99.90;;;;;;5012497;28;20045;-71
2022/08/25 07:57:07;;;;;;;15.90;8.10;;;23.10;99.90;;;;;;4995142;28;20053;-72
2022/08/25 07:59:32;;;;;;;22.80;8.98;;;23.20;99.90;;;;;;4995558;28;20052;-73
2022/08/25 08:01:58;;;;;;;21.43;9.00;;;23.30;99.90;;;;;;4995739;28;20139;-71
2022/08/25 08:04:24;;;;;;;21.10;8.87;;;23.40;99.90;;;;;;4979619;28;20517;-72
2022/08/25 08:06:50;;;;;;;16.50;8.30;;;23.50;99.90;;;;;;4996015;28;20132;-76
2022/08/25 08:09:15;;;;;;;20.17;8.60;;;23.70;99.90;;;;;;4995664;28;20113;-72
2022/08/25 08:11:43;;;;;;;19.03;8.40;;;23.80;99.90;;;;;;5014956;28;20052;-73
2022/08/25 08:14:10;;;;;;;21.80;8.32;;;24.00;99.90;;;;;;4997991;28;20293;-71
2022/08/25 08:16:37;;;;;;;16.17;8.05;;;23.90;99.90;;;;;;5013286;28;20109;-71
2022/08/25 08:19:04;;;;;;;23.13;7.93;;;24.20;99.90;;;;;;4995645;28;20042;-72
2022/08/25 08:21:32;;;;;;;16.75;7.72;;;24.20;99.90;;;;;;5013081;28;20351;-71
2022/08/25 08:23:59;;;;;;;18.58;7.70;;;24.10;99.50;;;;;;5012509;28;20371;-73
2022/08/25 08:26:27;;;;;;;;;;;24.20;99.80;;;;;;5013433;28;20378;-74
2022/08/25 08:28:53;;;;;;;15.10;7.75;;;24.30;99.70;;;;;;5011832;28;20025;-74
2022/08/25 08:31:20;;;;;;;;;;;24.30;99.80;;;;;;4995631;28;20046;-72
2022/08/25 08:33:48;;;;;;;17.45;8.32;;;24.50;99.90;;;;;;5012421;28;19925;-73
2022/08/25 08:36:14;;;;;;;18.60;8.15;;;24.50;99.40;;;;;;5012802;28;20042;-71
2022/08/25 08:38:42;;;;;;;21.98;8.10;;;24.70;98.80;;;;;;5012114;28;20057;-72
2022/08/25 08:44:28;;;;;;;25.30;7.90;;;24.90;98.80;;;;;;4993948;28;20042;-73
2022/08/25 08:47:15;;;;;;;16.05;7.50;;;25.00;99.90;;;;;;5012838;28;20470;-71
2022/08/25 08:57:46;;;;;;;18.13;7.57;;;25.40;99.90;;;;;;4979114;23;20396;-72
2022/08/25 09:00:13;;;;;;;17.83;7.70;;;25.50;99.90;;;;;;4937029;29;20047;-72
2022/08/25 09:03:05;;;;;;;24.67;7.82;;;25.70;99.90;;;;;;4936689;29;20047;-71
2022/08/25 09:05:46;;;;;;;21.48;8.10;;;25.60;99.90;;;;;;4952535;29;20091;-73
2022/08/25 09:08:13;;;;;;;15.60;7.40;;;25.80;99.90;;;;;;4936843;29;20113;-72
2022/08/25 09:11:07;;;;;;;18.80;7.25;;;25.90;99.90;;;;;;4936469;29;20054;-71
2022/08/25 09:14:14;;;;;;;15.35;7.05;;;25.90;99.90;;;;;;4935048;29;20055;-73
2022/08/25 09:16:59;;;;;;;19.90;7.20;;;26.10;99.50;;;;;;4952902;28;20066;-69
2022/08/25 09:19:24;;;;;;;14.48;6.78;;;26.10;98.60;;;;;;4920673;29;20072;-73
2022/08/25 09:22:03;;;;;;;17.10;7.20;;;26.20;97.50;;;;;;4953971;29;20059;-70
2022/08/25 09:24:46;;;;;;;18.77;6.60;;;26.30;96.70;;;;;;4953427;29;20134;-72
2022/08/25 09:27:20;;;;;;;18.83;7.13;;;26.50;95.40;;;;;;4953089;29;20134;-79
2022/08/25 09:29:53;;;;;;;17.90;7.18;;;26.50;94.60;;;;;;4936984;29;20102;-72
2022/08/25 09:32:19;;;;;;;14.15;6.50;;;26.50;93.50;;;;;;4936322;29;20083;-74
2022/08/25 09:34:46;;;;;;;;;;;26.60;94.00;;;;;;4954127;29;20054;-72
2022/08/25 09:37:12;;;;;;;18.67;6.80;;;26.70;94.00;;;;;;4953661;29;19930;-73
2022/08/25 09:39:37;;;;;;;11.87;6.37;;;26.80;93.60;;;;;;4935942;29;20043;-72
2022/08/25 09:42:03;;;;;;;16.60;6.60;;;26.80;93.70;;;;;;4952945;29;20047;-75
2022/08/25 09:44:40;;;;;;;18.33;6.90;;;26.90;93.50;;;;;;4952587;29;20134;-73
2022/08/25 09:47:14;;;;;;;;;;;27.00;93.00;;;;;;4953648;29;20051;-72
2022/08/25 09:49:49;;;;;;;19.23;6.20;;;27.10;92.50;;;;;;4951742;29;20025;-73
2022/08/25 09:52:16;;;;;;;11.80;5.63;;;27.20;91.50;;;;;;4935753;29;20444;-75
2022/08/25 09:54:42;;;;;;;12.77;6.05;;;27.30;91.70;;;;;;4932180;29;20067;-72
2022/08/25 09:57:07;;;;;;;14.80;6.18;;;27.30;91.90;;;;;;4932571;29;20142;-74
2022/08/25 09:59:35;;;;;;;13.88;5.82;;;27.40;90.90;;;;;;4934236;29;20478;-73
2022/08/25 10:02:20;;;;;;;14.27;6.43;;;27.50;90.60;;;;;;4918350;29;20499;-76
2022/08/25 10:04:45;;;;;;;20.50;7.03;;;27.60;90.80;;;;;;4933553;29;20052;-74
2022/08/25 10:07:25;;;;;;;14.17;7.20;;;27.60;90.90;;;;;;4935497;28;20070;-72
2022/08/25 10:09:58;;;;;;;14.63;6.90;;;27.60;90.40;;;;;;4957045;28;20370;-73
2022/08/25 10:12:39;;;;;;;15.52;6.18;;;27.60;91.10;;;;;;4955320;29;20055;-72
2022/08/25 10:15:26;;;;;;;13.18;6.00;;;27.80;90.20;;;;;;4956912;29;20047;-73
2022/08/25 10:17:51;;;;;;;13.05;6.53;;;27.90;88.10;;;;;;4956202;29;20393;-73
2022/08/25 10:20:26;;;;;;;17.58;7.55;;;27.90;87.50;;;;;;4956606;29;20039;-74
2022/08/25 10:23:09;;;;;;;14.75;6.30;;;28.00;88.90;;;;;;4956426;29;20062;-73
2022/08/25 10:25:44;;;;;;;14.50;6.60;;;28.10;87.70;;;;;;4955947;29;20067;-75
2022/08/25 10:28:32;;;;;;;17.27;7.38;;;28.10;86.80;;;;;;4954129;29;20144;-73
2022/08/25 10:31:13;;;;;;;26.77;7.18;;;28.10;88.00;;;;;;4956967;28;20093;-76
2022/08/25 10:33:46;;;;;;;19.08;6.10;;;28.20;87.00;;;;;;4956266;29;20047;-72
2022/08/25 10:36:30;;;;;;;18.88;6.30;;;28.30;87.90;;;;;;4956363;29;20051;-72
2022/08/25 10:39:01;;;;;;;13.55;5.95;;;28.30;86.00;;;;;;4956370;28;20046;-74
2022/08/25 10:41:50;;;;;;;13.77;6.20;;;28.30;86.00;;;;;;4957154;29;20090;-73
2022/08/25 10:47:43;;;;;;;13.00;5.82;;;28.40;82.20;;;;;;4957099;29;20054;-72
2022/08/25 10:50:23;;;;;;;12.77;5.40;;;28.50;80.70;;;;;;4957850;29;20043;-73
2022/08/25 10:53:10;;;;;;;15.13;5.65;;;28.50;80.20;;;;;;4963350;29;20448;-74
2022/08/25 10:55:53;;;;;;;14.68;5.30;;;28.50;81.00;;;;;;4926952;29;20079;-71
2022/08/25 10:58:53;;;;;;;15.30;5.82;;;28.50;79.20;;;;;;4943399;29;20075;-71
2022/08/25 11:01:53;;;;;;;11.57;5.32;;;28.50;80.20;;;;;;4960804;29;20054;-74
2022/08/25 11:04:30;;;;;;;12.35;4.85;;;28.50;80.70;;;;;;4960712;29;20058;-75
2022/08/25 11:07:57;;;;;;;9.05;4.55;;;28.80;77.00;;;;;;4962242;29;20082;-72
2022/08/25 11:10:37;;;;;;;11.23;5.30;;;28.80;74.90;;;;;;4929593;29;20197;-72
2022/08/25 11:13:12;;;;;;;11.57;5.50;;;28.80;75.70;;;;;;4943552;29;20403;-74
2022/08/25 11:15:47;;;;;;;14.25;5.47;;;28.80;75.10;;;;;;4960855;29;20047;-75
2022/08/25 11:18:14;;;;;;;12.77;5.57;;;28.90;76.00;;;;;;4924341;29;20272;-75
2022/08/25 11:20:50;;;;;;;15.73;5.45;;;28.90;74.00;;;;;;4924905;29;20050;-73
2022/08/25 11:23:20;;;;;;;17.95;5.70;;;28.90;74.40;;;;;;4942566;29;20046;-73
2022/08/25 11:25:52;;;;;;;12.50;5.43;;;29.00;73.40;;;;;;4942176;29;20043;-74
2022/08/25 11:28:47;;;;;;;13.98;5.30;;;29.00;72.30;;;;;;4925338;29;20090;-73
2022/08/25 11:31:16;;;;;;;12.98;5.00;;;29.00;72.90;;;;;;4925289;29;20050;-72
2022/08/25 11:33:42;;;;;;;11.18;5.30;;;29.00;72.80;;;;;;4942777;29;20043;-72
2022/08/25 11:36:26;;;;;;;11.85;5.22;;;29.00;73.00;;;;;;4943181;29;20044;-73
2022/08/25 11:39:17;;;;;;;13.52;5.57;;;29.00;72.70;;;;;;4943140;29;20044;-74
2022/08/25 11:41:58;;;;;;;13.23;4.97;;;29.10;72.10;;;;;;4942267;29;20044;-73
2022/08/25 11:45:22;;;;;;;13.07;5.53;;;29.00;71.90;;;;;;4940872;29;20044;-71
2022/08/25 11:48:00;;;;;;;10.02;5.47;;;29.10;72.60;;;;;;4882053;29;20127;-71
2022/08/25 11:50:34;;;;;;;15.40;5.28;;;29.20;71.80;;;;;;4882686;29;20080;-75
2022/08/25 11:53:23;;;;;;;13.27;5.30;;;29.30;70.60;;;;;;4929937;29;20238;-73
2022/08/25 11:55:53;;;;;;;19.92;5.40;;;29.30;70.80;;;;;;4942349;29;20058;-75
2022/08/25 11:58:51;;;;;;;12.27;5.00;;;29.20;70.90;;;;;;4942028;29;20047;-74
2022/08/25 12:01:38;;;;;;;9.85;4.90;;;29.30;71.30;;;;;;4954282;29;20138;-74
2022/08/25 12:04:39;;;;;;;10.50;4.43;;;29.30;70.30;;;;;;4958591;29;20043;-75
2022/08/25 12:07:05;;;;;;;10.70;5.10;;;29.40;67.20;;;;;;4941486;29;20047;-73
2022/08/25 12:09:32;;;;;;;9.27;4.90;;;29.50;69.20;;;;;;4958535;29;20053;-73
2022/08/25 12:12:18;;;;;;;14.25;5.13;;;29.50;68.80;;;;;;4942099;29;20102;-73
2022/08/25 12:14:47;;;;;;;9.82;4.28;;;29.50;67.30;;;;;;4961986;29;20039;-72
2022/08/25 12:17:23;;;;;;;9.60;4.30;;;29.50;66.80;;;;;;4928362;29;20047;-72
2022/08/25 12:19:52;;;;;;;13.30;4.68;;;29.50;67.30;;;;;;4960815;29;20051;-74
2022/08/25 12:22:21;;;;;;;11.82;4.50;;;29.50;67.20;;;;;;4959644;29;20054;-72
2022/08/25 12:24:55;;;;;;;11.48;4.65;;;29.60;67.40;;;;;;4958674;29;20039;-75
2022/08/25 12:28:06;;;;;;;12.75;4.68;;;29.60;67.30;;;;;;4940366;29;20156;-73
2022/08/25 12:30:48;;;;;;;10.25;4.68;;;29.60;66.90;;;;;;4955826;28;20035;-76
2022/08/25 12:33:41;;;;;;;13.48;5.28;;;29.70;65.70;;;;;;4941163;29;20043;-74
2022/08/25 12:36:10;;;;;;;13.02;5.10;;;29.70;65.70;;;;;;4958006;29;20106;-75
2022/08/25 12:38:48;;;;;;;11.02;4.88;;;29.70;66.50;;;;;;4957525;29;20050;-77
2022/08/25 12:41:18;;;;;;;12.20;4.78;;;29.70;66.10;;;;;;4959145;29;20043;-74
2022/08/25 12:43:49;;;;;;;11.30;4.95;;;29.70;65.80;;;;;;4941289;29;20035;-75
2022/08/25 12:46:26;;;;;;;8.35;4.65;;;29.70;65.30;;;;;;4926705;29;20042;-73
2022/08/25 12:48:59;;;;;;;14.13;4.78;;;29.70;66.10;;;;;;4940100;29;20407;-74
2022/08/25 12:51:41;;;;;;;9.48;4.88;;;29.70;66.00;;;;;;4956266;29;20058;-74
2022/08/25 12:54:29;;;;;;;11.18;4.95;;;29.80;66.50;;;;;;4939185;29;20188;-75
2022/08/25 12:57:02;;;;;;;14.30;4.85;;;29.80;66.10;;;;;;4956772;29;20391;-73
2022/08/25 12:59:34;;;;;;;13.25;4.70;;;29.90;64.70;;;;;;4956872;29;20068;-72
2022/08/25 13:02:08;;;;;;;12.40;5.45;;;30.00;65.00;;;;;;4956191;29;20051;-74
2022/08/25 13:05:11;;;;;;;17.05;5.15;;;30.00;65.30;;;;;;4955659;29;20452;-85
2022/08/25 13:07:58;;;;;;;11.73;5.43;;;29.90;64.20;;;;;;4938191;29;20055;-73
2022/08/25 13:10:45;;;;;;;11.80;5.05;;;29.90;66.10;;;;;;4938135;29;20118;-76
2022/08/25 13:13:20;;;;;;;9.88;4.85;;;30.10;65.70;;;;;;4936937;29;20046;-73
2022/08/25 13:15:57;;;;;;;10.43;5.00;;;30.10;64.80;;;;;;4937309;29;20043;-73
2022/08/25 13:18:28;;;;;;;12.50;5.43;;;30.00;63.30;;;;;;4954065;29;20050;-74
2022/08/25 13:21:02;;;;;;;17.52;5.25;;;30.10;65.00;;;;;;4954427;29;20137;-72
2022/08/25 13:23:31;;;;;;;10.15;5.15;;;30.20;64.40;;;;;;4921730;29;20051;-73
2022/08/25 13:25:57;;;;;;;13.82;5.28;;;30.20;65.00;;;;;;4939770;29;20150;-74
2022/08/25 13:28:29;;;;;;;12.05;4.97;;;30.30;64.90;;;;;;4957168;29;20153;-74
2022/08/25 13:30:59;;;;;;;11.20;5.88;;;30.30;63.40;;;;;;4940899;29;20047;-72
2022/08/25 13:33:24;;;;;;;17.73;6.20;;;30.20;61.30;;;;;;4941692;29;20121;-72
2022/08/25 13:38:39;;;;;;;16.80;5.70;;;30.40;62.30;;;;;;4920323;29;20051;-73
2022/08/25 13:41:08;;;;;;;11.05;5.25;;;30.40;63.10;;;;;;4927168;28;20082;-74
2022/08/25 13:43:35;;;;;;;11.02;5.78;;;30.30;64.00;;;;;;4964737;28;20123;-74
2022/08/25 13:46:01;;;;;;;10.82;6.10;;;30.30;64.70;;;;;;4962745;29;20131;-73
2022/08/25 13:48:32;;;;;;;;;;;30.30;65.00;;;;;;4930977;29;20122;-73
2022/08/25 13:51:24;;;;;;;14.27;5.82;;;30.40;65.50;;;;;;4963043;28;19922;-76
2022/08/25 13:54:00;;;;;;;10.48;5.53;;;30.40;64.50;;;;;;4962999;29;20051;-73
2022/08/25 13:56:35;;;;;;;9.82;5.75;;;30.40;65.00;;;;;;4963471;28;20384;-71
2022/08/25 13:59:03;;;;;;;19.05;7.07;;;30.40;64.60;;;;;;4944684;29;20051;-73
2022/08/25 14:01:42;;;;;;;14.88;6.50;;;30.50;65.20;;;;;;4944212;29;20055;-78
2022/08/25 14:04:30;;;;;;;12.48;6.82;;;30.40;65.10;;;;;;4945587;29;20418;-74
2022/08/25 14:07:11;;;;;;;12.75;6.47;;;30.40;64.80;;;;;;4962636;28;20082;-74
2022/08/25 14:09:45;;;;;;;16.02;6.72;;;30.40;64.90;;;;;;4963565;28;20043;-73
2022/08/25 14:12:28;;;;;;;12.90;6.90;;;30.40;64.70;;;;;;4947138;29;20105;-76
2022/08/25 14:15:17;;;;;;;13.27;6.60;;;30.40;64.60;;;;;;4962862;29;20314;-73
2022/08/25 14:18:26;;;;;;;16.25;6.97;;;30.40;65.50;;;;;;4952201;28;20085;-73
2022/08/25 14:20:55;;;;;;;11.98;6.43;;;30.40;66.00;;;;;;4946158;29;20054;-74
2022/08/25 14:23:24;;;;;;;13.98;6.82;;;30.40;65.90;;;;;;4962991;29;20365;-72
2022/08/25 14:25:52;;;;;;;17.23;6.97;;;30.40;66.30;;;;;;4963966;29;20388;-74
2022/08/25 14:28:21;;;;;;;19.42;6.90;;;30.50;66.50;;;;;;4962783;29;20129;-75
2022/08/25 14:30:52;;;;;;;16.15;6.97;;;30.40;66.00;;;;;;4952277;29;20062;-72
2022/08/25 14:33:23;;;;;;;15.80;7.57;;;30.50;65.80;;;;;;4964718;28;20628;-73
2022/08/25 14:35:51;;;;;;;14.60;6.97;;;30.50;65.90;;;;;;4954882;29;20062;-74
2022/08/25 14:38:18;;;;;;;16.02;7.65;;;30.40;66.80;;;;;;4961649;28;20051;-73
2022/08/25 14:40:45;;;;;;;14.75;7.47;;;30.40;67.00;;;;;;4961549;28;20515;-74
2022/08/25 14:43:11;;;;;;;20.25;8.20;;;30.50;66.60;;;;;;4960391;28;20055;-73
2022/08/25 14:45:38;;;;;;;;;;;30.50;67.00;;;;;;4961594;28;20110;-74
2022/08/25 14:48:08;;;;;;;14.05;7.57;;;30.50;66.90;;;;;;4964553;28;20428;-73
2022/08/25 14:50:34;;;;;;;16.50;7.93;;;30.50;67.00;;;;;;4965291;29;20043;-74
2022/08/25 14:53:01;;;;;;;15.48;8.05;;;30.50;67.00;;;;;;4960857;28;20105;-75
2022/08/25 14:55:28;;;;;;;15.82;7.80;;;30.50;67.10;;;;;;4965285;29;20050;-74
2022/08/25 14:57:53;;;;;;;17.60;8.13;;;30.50;67.30;;;;;;4967203;29;20051;-75
2022/08/25 15:00:19;;;;;;;12.63;7.85;;;30.50;67.40;;;;;;4971565;29;20058;-73
2022/08/25 15:02:48;;;;;;;12.02;7.85;;;30.50;67.10;;;;;;4966148;29;20047;-79
2022/08/25 15:05:19;;;;;;;24.33;8.30;;;30.60;66.10;;;;;;4964731;29;20065;-74
2022/08/25 15:10:29;;;;;;;18.95;8.88;;;30.40;66.30;;;;;;4964699;29;20070;-72
2022/08/25 15:12:55;;;;;;;19.98;8.48;;;30.40;65.50;;;;;;4941282;29;20047;-74
2022/08/25 15:15:21;;;;;;;15.93;7.88;;;30.30;67.30;;;;;;4945205;29;20066;-75
2022/08/25 15:17:47;;;;;;;20.85;9.07;;;30.40;67.40;;;;;;4956051;28;20091;-80
2022/08/25 15:20:13;;;;;;;18.13;8.07;;;30.40;66.50;;;;;;4942255;29;20464;-73
2022/08/25 15:22:39;;;;;;;12.63;7.88;;;30.40;67.40;;;;;;4941064;29;20047;-72
2022/08/25 15:25:06;;;;;;;17.00;9.35;;;30.40;67.30;;;;;;4957046;28;20063;-72
2022/08/25 15:27:32;;;;;;;18.02;8.90;;;30.40;67.20;;;;;;4921054;29;20320;-73
2022/08/25 15:29:58;;;;;;;17.33;8.65;;;30.40;66.70;;;;;;4957251;29;20135;-73
2022/08/25 15:32:23;;;;;;;14.52;8.35;;;30.40;67.20;;;;;;4959261;29;20086;-75
2022/08/25 15:34:50;;;;;;;14.60;8.80;;;30.40;66.40;;;;;;4962122;29;20047;-76
2022/08/25 15:37:16;;;;;;;18.08;9.30;;;30.40;66.90;;;;;;4943843;29;20043;-74
2022/08/25 15:39:44;;;;;;;17.52;8.73;;;30.30;67.00;;;;;;4945180;29;20051;-74
2022/08/25 15:42:14;;;;;;;16.67;8.57;;;30.40;67.20;;;;;;4961418;29;20373;-75
2022/08/25 15:44:40;;;;;;;16.25;8.50;;;30.40;67.00;;;;;;4957039;29;20047;-72
2022/08/25 15:47:06;;;;;;;18.05;8.75;;;30.30;67.10;;;;;;4963282;29;20050;-73
2022/08/25 15:49:32;;;;;;;17.52;8.50;;;30.30;67.30;;;;;;4962288;29;20058;-74
2022/08/25 15:51:57;;;;;;;19.90;8.20;;;30.30;67.40;;;;;;4930593;29;20047;-72
2022/08/25 15:54:25;;;;;;;14.80;8.40;;;30.30;67.70;;;;;;4942099;29;20043;-73
2022/08/25 15:56:51;;;;;;;16.95;8.50;;;30.20;66.20;;;;;;4937980;29;20419;-81